Time;durP1;ratioP1;P1;durP2;ratioP2;P2;SDS_P1;SDS_P2;PMS_P1;PMS_P2;Temp;Humidity;BMP_temperature;BMP_pressure;BME280_temperature;BME280_humidity;BME280_pressure;Samples;Min_cycle;Max_cycle;Signal;HPM_P1;HPM_P2
2021/01/26 00:00:59;;;;;;;13.85;8.63;;;2.00;99.90;;;;;;4935411;29;20501;-80
2021/01/26 00:03:26;;;;;;;14.68;9.55;;;2.10;99.90;;;;;;4935284;29;20134;-80
2021/01/26 00:05:53;;;;;;;14.00;8.40;;;2.10;99.90;;;;;;4935351;29;20054;-80
2021/01/26 00:08:20;;;;;;;12.80;8.20;;;2.10;99.90;;;;;;4935110;29;20143;-80
2021/01/26 00:10:47;;;;;;;12.55;8.27;;;2.30;99.90;;;;;;4942083;29;20047;-80
2021/01/26 00:13:15;;;;;;;11.93;7.82;;;2.20;99.90;;;;;;4954219;29;20087;-80
2021/01/26 00:15:42;;;;;;;13.98;9.07;;;2.10;99.90;;;;;;4953792;29;20132;-80
2021/01/26 00:18:09;;;;;;;14.55;9.10;;;2.10;99.90;;;;;;4935227;29;20143;-80
2021/01/26 00:20:36;;;;;;;14.75;9.40;;;2.00;99.90;;;;;;4935166;29;20067;-80
2021/01/26 00:23:03;;;;;;;13.77;9.02;;;2.00;99.90;;;;;;4934996;29;20075;-80
2021/01/26 00:25:34;;;;;;;13.68;9.23;;;2.00;99.90;;;;;;4934737;29;20094;-80
2021/01/26 00:28:01;;;;;;;14.73;9.10;;;2.10;99.90;;;;;;4935269;29;20090;-80
2021/01/26 00:30:32;;;;;;;14.93;9.45;;;2.10;99.90;;;;;;4935607;29;20050;-80
2021/01/26 00:33:01;;;;;;;14.77;9.07;;;2.10;99.90;;;;;;4934868;29;20057;-80
2021/01/26 00:35:30;;;;;;;14.43;9.68;;;2.00;99.90;;;;;;4934761;29;20054;-80
2021/01/26 00:37:57;;;;;;;14.98;9.20;;;2.00;99.90;;;;;;4944270;29;20137;-80
2021/01/26 00:40:24;;;;;;;17.02;10.85;;;1.80;99.90;;;;;;4938336;29;20087;-80
2021/01/26 00:42:51;;;;;;;17.52;10.90;;;1.90;99.90;;;;;;4934355;29;20134;-80
2021/01/26 00:45:20;;;;;;;15.95;10.38;;;1.80;99.90;;;;;;4934444;29;20049;-79
2021/01/26 00:47:48;;;;;;;16.15;10.38;;;1.80;99.90;;;;;;4933062;29;20051;-80
2021/01/26 00:50:17;;;;;;;16.33;10.23;;;1.70;99.90;;;;;;4945236;29;20062;-80
2021/01/26 00:52:44;;;;;;;15.50;10.35;;;1.70;99.90;;;;;;4953799;29;20118;-80
2021/01/26 00:55:12;;;;;;;18.33;11.07;;;1.60;99.90;;;;;;4953296;29;20066;-79
2021/01/26 00:57:39;;;;;;;18.05;11.02;;;1.50;99.90;;;;;;4953402;29;20077;-80
2021/01/26 01:00:11;;;;;;;16.95;10.60;;;1.50;99.90;;;;;;4935731;29;20062;-80
2021/01/26 01:02:38;;;;;;;16.60;10.57;;;1.50;99.90;;;;;;4953119;29;20055;-80
2021/01/26 01:05:08;;;;;;;16.88;11.35;;;1.50;99.90;;;;;;4949334;29;20051;-80
2021/01/26 01:07:35;;;;;;;17.58;10.55;;;1.50;99.90;;;;;;4916763;29;20146;-80
2021/01/26 01:10:01;;;;;;;16.45;9.82;;;1.30;99.90;;;;;;4936555;29;20128;-80
2021/01/26 01:12:28;;;;;;;17.88;9.95;;;1.40;99.90;;;;;;4936435;29;20557;-80
2021/01/26 01:14:55;;;;;;;16.38;10.00;;;1.20;99.90;;;;;;4934329;29;20218;-80
2021/01/26 01:17:21;;;;;;;15.80;9.65;;;1.20;99.90;;;;;;4933929;29;20052;-80
2021/01/26 01:19:48;;;;;;;16.00;10.00;;;1.20;99.90;;;;;;4943160;29;20149;-80
2021/01/26 01:22:15;;;;;;;15.43;9.57;;;1.30;99.90;;;;;;4953381;29;20137;-80
2021/01/26 01:24:42;;;;;;;15.63;9.23;;;1.30;99.90;;;;;;4953249;29;20052;-80
2021/01/26 01:27:09;;;;;;;15.52;9.27;;;1.30;99.90;;;;;;4953432;29;20079;-80
2021/01/26 01:29:35;;;;;;;14.80;9.40;;;1.30;99.90;;;;;;4952950;29;20462;-80
2021/01/26 01:32:02;;;;;;;15.68;10.68;;;1.20;99.90;;;;;;4951370;29;20082;-80
2021/01/26 01:34:29;;;;;;;16.55;9.30;;;1.30;99.90;;;;;;4952811;29;20127;-80
2021/01/26 01:36:55;;;;;;;14.57;9.57;;;1.30;99.90;;;;;;4952820;29;20138;-80
2021/01/26 01:39:23;;;;;;;15.45;9.65;;;1.20;99.90;;;;;;4948032;29;20044;-80
2021/01/26 01:41:49;;;;;;;14.07;8.70;;;1.20;99.90;;;;;;4933920;29;20047;-80
2021/01/26 01:44:16;;;;;;;14.13;9.40;;;1.30;99.90;;;;;;4933802;29;20142;-80
2021/01/26 01:46:48;;;;;;;17.83;10.15;;;1.20;99.90;;;;;;4933653;29;20548;-80
2021/01/26 01:49:22;;;;;;;15.35;9.88;;;1.10;99.90;;;;;;4939231;29;20073;-80
2021/01/26 01:51:49;;;;;;;13.02;8.98;;;1.10;99.90;;;;;;4952502;29;20130;-81
2021/01/26 01:54:20;;;;;;;14.18;8.80;;;1.10;99.90;;;;;;4952708;29;20090;-80
2021/01/26 01:56:56;;;;;;;14.55;9.35;;;1.10;99.90;;;;;;4952736;29;20051;-80
2021/01/26 01:59:28;;;;;;;13.93;9.25;;;1.00;99.90;;;;;;4951185;29;20055;-80
2021/01/26 02:01:55;;;;;;;15.05;9.10;;;1.00;99.90;;;;;;4952844;29;20138;-79
2021/01/26 02:04:25;;;;;;;13.27;8.60;;;1.00;99.90;;;;;;4952807;29;20138;-79
2021/01/26 02:06:55;;;;;;;13.70;8.80;;;0.90;99.90;;;;;;4952178;29;20450;-80
2021/01/26 02:09:28;;;;;;;14.68;8.50;;;0.90;99.90;;;;;;4946043;29;20536;-80
2021/01/26 02:11:56;;;;;;;14.60;9.00;;;0.90;99.90;;;;;;4952463;29;20079;-81
2021/01/26 02:14:24;;;;;;;13.57;8.35;;;0.90;99.90;;;;;;4952477;29;20469;-80
2021/01/26 02:17:08;;;;;;;14.27;8.35;;;0.90;99.90;;;;;;4951348;29;20061;-79
2021/01/26 02:20:25;;;;;;;14.13;7.78;;;0.80;99.90;;;;;;4944822;29;20119;-79
2021/01/26 02:23:45;;;;;;;13.45;8.27;;;0.70;99.90;;;;;;4933185;29;20052;-79
2021/01/26 02:27:05;;;;;;;15.60;8.95;;;0.70;99.90;;;;;;4933357;29;20138;-80
2021/01/26 02:30:05;;;;;;;13.77;7.88;;;0.70;99.90;;;;;;4933793;29;20099;-80
2021/01/26 02:32:51;;;;;;;13.45;7.93;;;0.70;99.90;;;;;;4933380;29;20138;-80
2021/01/26 02:36:15;;;;;;;15.45;8.32;;;0.80;99.90;;;;;;4916189;29;20075;-80
2021/01/26 02:39:25;;;;;;;;;;;0.80;99.90;;;;;;4934726;29;20557;-80
2021/01/26 02:42:06;;;;;;;12.98;8.00;;;0.70;99.90;;;;;;4916436;29;20017;-80
2021/01/26 02:44:41;;;;;;;14.07;8.52;;;0.80;99.90;;;;;;4952355;29;20052;-80
2021/01/26 02:47:18;;;;;;;13.02;7.78;;;0.70;99.90;;;;;;4963060;29;20127;-80
2021/01/26 02:49:51;;;;;;;13.82;7.95;;;0.70;99.90;;;;;;4954165;29;20083;-80
2021/01/26 02:52:30;;;;;;;12.65;7.55;;;0.70;99.90;;;;;;4942140;29;20155;-80
2021/01/26 02:55:05;;;;;;;14.65;7.90;;;0.70;99.90;;;;;;4946358;29;20087;-80
2021/01/26 02:57:39;;;;;;;14.20;7.85;;;0.60;99.90;;;;;;4963365;29;20079;-80
2021/01/26 03:00:12;;;;;;;11.63;7.53;;;0.50;99.90;;;;;;4952799;28;20075;-80
2021/01/26 03:02:44;;;;;;;14.10;7.55;;;0.60;99.90;;;;;;4937992;29;20082;-79
2021/01/26 03:05:18;;;;;;;14.05;8.18;;;0.50;99.90;;;;;;4938699;29;20134;-80
2021/01/26 03:07:52;;;;;;;14.45;7.82;;;0.50;99.90;;;;;;4938494;29;20143;-80
2021/01/26 03:10:27;;;;;;;14.63;7.90;;;0.60;99.90;;;;;;4943271;29;20135;-80
2021/01/26 03:13:00;;;;;;;13.82;7.32;;;0.50;99.90;;;;;;4956465;29;20133;-80
2021/01/26 03:15:33;;;;;;;12.05;7.38;;;0.50;99.90;;;;;;4957616;29;20556;-81
2021/01/26 03:18:06;;;;;;;12.50;7.07;;;0.70;99.90;;;;;;4957227;29;20073;-81
2021/01/26 03:20:37;;;;;;;12.32;7.18;;;0.80;99.90;;;;;;4942232;29;20134;-80
2021/01/26 03:23:09;;;;;;;12.07;7.50;;;0.70;99.90;;;;;;4939398;29;20135;-80
2021/01/26 03:25:40;;;;;;;13.93;7.60;;;0.70;99.90;;;;;;4938512;29;20057;-80
2021/01/26 03:28:10;;;;;;;14.43;7.57;;;0.60;99.90;;;;;;4943420;29;20134;-80
2021/01/26 03:30:41;;;;;;;12.73;7.13;;;0.60;99.90;;;;;;4941584;29;20063;-80
2021/01/26 03:33:12;;;;;;;11.68;7.05;;;0.50;99.90;;;;;;4938081;29;20134;-80
2021/01/26 03:35:39;;;;;;;13.27;7.97;;;0.70;99.90;;;;;;4921311;29;20519;-80
2021/01/26 03:38:12;;;;;;;13.73;7.78;;;0.50;99.90;;;;;;4937974;29;20063;-80
2021/01/26 03:40:40;;;;;;;11.75;6.95;;;0.50;99.90;;;;;;4953301;29;20142;-80
2021/01/26 03:43:07;;;;;;;12.05;7.20;;;0.50;99.90;;;;;;4957124;29;20138;-80
2021/01/26 03:45:34;;;;;;;13.65;7.15;;;0.50;99.90;;;;;;4955788;29;20043;-80
2021/01/26 03:48:18;;;;;;;13.75;7.82;;;0.40;99.90;;;;;;4956114;29;20133;-79
2021/01/26 03:50:52;;;;;;;12.80;7.57;;;0.40;99.90;;;;;;4954834;29;20138;-79
2021/01/26 03:54:00;;;;;;;13.10;7.35;;;0.40;99.90;;;;;;4957118;29;20520;-79
2021/01/26 03:56:44;;;;;;;13.40;7.20;;;0.40;99.90;;;;;;4943926;29;20138;-81
2021/01/26 03:59:21;;;;;;;;;;;0.30;99.90;;;;;;4956140;29;20218;-80
2021/01/26 04:01:58;;;;;;;13.30;7.15;;;0.30;99.90;;;;;;4937661;29;19923;-80
2021/01/26 04:04:34;;;;;;;13.77;7.70;;;0.20;99.90;;;;;;4948057;29;20051;-81
2021/01/26 04:07:04;;;;;;;12.43;7.23;;;0.10;99.90;;;;;;4954859;29;20134;-80
2021/01/26 04:09:35;;;;;;;12.23;7.43;;;0.20;99.90;;;;;;4953651;29;20134;-80
2021/01/26 04:12:09;;;;;;;12.20;7.65;;;0.10;99.90;;;;;;4948974;28;20161;-80
2021/01/26 04:14:40;;;;;;;14.00;7.90;;;0.20;99.90;;;;;;4954684;29;20131;-80
2021/01/26 04:17:12;;;;;;;12.47;7.17;;;0.10;99.90;;;;;;4953166;29;20130;-82
2021/01/26 04:19:46;;;;;;;12.57;7.03;;;0.10;99.90;;;;;;4954595;29;20493;-80
2021/01/26 04:22:14;;;;;;;11.40;6.50;;;0.20;99.90;;;;;;4935705;29;20059;-80
2021/01/26 04:24:40;;;;;;;11.68;6.78;;;0.20;99.90;;;;;;4935446;29;20559;-80
2021/01/26 04:27:14;;;;;;;12.73;7.20;;;0.30;99.90;;;;;;4935620;29;20130;-80
2021/01/26 04:29:40;;;;;;;11.82;6.88;;;0.40;99.90;;;;;;4935871;29;20081;-81
2021/01/26 04:32:07;;;;;;;11.50;6.72;;;0.30;99.90;;;;;;4939065;29;20054;-81
2021/01/26 04:34:34;;;;;;;13.90;6.68;;;0.40;99.90;;;;;;4935314;29;20131;-81
2021/01/26 04:37:01;;;;;;;12.85;6.53;;;0.40;99.90;;;;;;4935221;29;20191;-81
2021/01/26 04:39:27;;;;;;;12.00;7.00;;;0.40;99.90;;;;;;4935079;29;20138;-82
2021/01/26 04:42:00;;;;;;;11.55;7.30;;;0.40;99.90;;;;;;4946358;29;20568;-82
2021/01/26 04:44:50;;;;;;;13.25;6.63;;;0.40;99.90;;;;;;4952564;29;20130;-82
2021/01/26 04:47:23;;;;;;;12.88;6.72;;;0.50;99.90;;;;;;4953947;29;20137;-82
2021/01/26 04:50:01;;;;;;;12.65;6.60;;;0.60;99.90;;;;;;4954305;29;20051;-82
2021/01/26 04:52:50;;;;;;;12.73;6.80;;;0.60;99.90;;;;;;4940650;29;20138;-83
2021/01/26 04:55:30;;;;;;;12.95;6.82;;;0.70;99.90;;;;;;4941301;29;20493;-82
2021/01/26 04:58:27;;;;;;;12.73;6.68;;;0.60;99.90;;;;;;4954001;29;20142;-80
2021/01/26 05:01:09;;;;;;;13.10;6.45;;;0.60;99.90;;;;;;4954005;29;20058;-81
2021/01/26 05:03:59;;;;;;;13.65;6.80;;;0.60;99.90;;;;;;4934820;29;20142;-81
2021/01/26 05:06:33;;;;;;;10.97;6.37;;;0.50;99.90;;;;;;4934746;29;20051;-81
2021/01/26 05:09:06;;;;;;;11.18;6.22;;;0.60;99.90;;;;;;4953230;29;20070;-81
2021/01/26 05:11:36;;;;;;;11.63;6.22;;;0.60;99.90;;;;;;4953029;29;20055;-85
2021/01/26 05:14:08;;;;;;;10.77;6.20;;;0.60;99.90;;;;;;4953136;29;20485;-80
2021/01/26 05:16:44;;;;;;;12.20;6.77;;;0.60;99.90;;;;;;4938857;29;20218;-81
2021/01/26 05:19:15;;;;;;;11.53;6.27;;;0.70;99.90;;;;;;4934510;29;20055;-78
2021/01/26 05:21:48;;;;;;;13.30;6.15;;;0.70;99.90;;;;;;4934345;29;20544;-78
2021/01/26 05:24:21;;;;;;;12.43;6.30;;;0.70;99.90;;;;;;4940666;29;20060;-80
2021/01/26 05:26:48;;;;;;;13.37;6.33;;;0.70;99.90;;;;;;4948823;29;20133;-80
2021/01/26 05:29:15;;;;;;;10.32;5.63;;;0.70;99.90;;;;;;4953273;29;20051;-78
2021/01/26 05:31:48;;;;;;;11.50;5.90;;;0.70;99.90;;;;;;4953580;29;20098;-79
2021/01/26 05:34:17;;;;;;;12.18;6.50;;;0.70;99.90;;;;;;4953565;29;20134;-79
2021/01/26 05:36:46;;;;;;;12.57;6.17;;;0.70;99.90;;;;;;4953734;29;20561;-80
2021/01/26 05:39:17;;;;;;;11.15;6.00;;;0.80;99.90;;;;;;4953529;29;20597;-79
2021/01/26 05:41:44;;;;;;;10.65;5.90;;;0.80;99.90;;;;;;4953310;29;20055;-79
2021/01/26 05:44:10;;;;;;;9.30;5.75;;;0.80;99.90;;;;;;4953224;29;20055;-78
2021/01/26 05:46:42;;;;;;;9.45;5.60;;;0.80;99.90;;;;;;4953062;29;20426;-78
2021/01/26 05:49:10;;;;;;;11.38;5.82;;;0.80;99.90;;;;;;4953132;29;20057;-79
2021/01/26 05:51:40;;;;;;;12.75;6.15;;;0.80;99.90;;;;;;4953106;29;20163;-79
2021/01/26 05:54:11;;;;;;;11.43;6.75;;;0.80;99.90;;;;;;4953100;29;20154;-79
2021/01/26 05:56:46;;;;;;;11.00;5.88;;;0.80;99.90;;;;;;4953306;29;20061;-79
2021/01/26 05:59:25;;;;;;;;;;;0.80;99.90;;;;;;4953756;29;20047;-78
2021/01/26 06:01:53;;;;;;;12.43;6.43;;;0.90;99.90;;;;;;4952724;29;20407;-79
2021/01/26 06:04:29;;;;;;;13.98;6.35;;;0.80;99.90;;;;;;4953351;29;20055;-78
2021/01/26 06:06:58;;;;;;;12.40;6.13;;;0.90;99.90;;;;;;4952734;29;20054;-79
2021/01/26 06:09:32;;;;;;;11.82;6.40;;;0.80;99.90;;;;;;4953261;29;20300;-78
2021/01/26 06:12:12;;;;;;;12.02;6.35;;;1.00;99.90;;;;;;4952974;29;20054;-78
2021/01/26 06:14:41;;;;;;;14.05;6.40;;;0.80;99.90;;;;;;4953330;29;20171;-79
2021/01/26 06:17:11;;;;;;;12.75;5.72;;;0.90;99.90;;;;;;4953157;29;20051;-79
2021/01/26 06:19:39;;;;;;;9.57;5.53;;;0.90;99.90;;;;;;4952778;29;20051;-79
2021/01/26 06:22:06;;;;;;;11.55;5.78;;;0.90;99.90;;;;;;4953001;29;20228;-79
2021/01/26 06:24:36;;;;;;;9.18;5.07;;;1.00;99.90;;;;;;4953250;29;20051;-78
2021/01/26 06:27:43;;;;;;;9.70;5.57;;;0.90;99.90;;;;;;4952910;29;20051;-78
2021/01/26 06:30:23;;;;;;;9.55;5.30;;;1.00;99.90;;;;;;4953144;29;20142;-79
2021/01/26 06:33:28;;;;;;;10.15;5.13;;;0.90;99.90;;;;;;4953097;29;20051;-79
2021/01/26 06:36:14;;;;;;;13.45;5.57;;;0.90;99.90;;;;;;4954043;28;20133;-79
2021/01/26 06:39:07;;;;;;;9.88;4.72;;;0.90;99.90;;;;;;4956566;29;20053;-79
2021/01/26 06:42:03;;;;;;;9.30;4.70;;;0.90;99.90;;;;;;4956495;29;20142;-78
2021/01/26 06:44:52;;;;;;;10.68;5.60;;;0.80;99.90;;;;;;4955370;29;20093;-78
2021/01/26 06:48:08;;;;;;;8.48;4.95;;;0.90;99.90;;;;;;4956430;29;20051;-79
2021/01/26 06:50:59;;;;;;;10.38;4.97;;;0.90;99.90;;;;;;4955344;29;20449;-78
2021/01/26 06:53:42;;;;;;;11.15;5.00;;;0.80;99.90;;;;;;4956218;29;20055;-79
2021/01/26 06:56:31;;;;;;;10.87;4.70;;;1.00;99.90;;;;;;4956257;29;20054;-78
2021/01/26 06:59:23;;;;;;;8.27;4.47;;;1.00;99.90;;;;;;4956395;29;20138;-79
2021/01/26 07:02:43;;;;;;;9.13;4.50;;;0.90;99.90;;;;;;4956457;29;20130;-78
2021/01/26 07:05:32;;;;;;;8.60;4.28;;;0.90;99.90;;;;;;4923276;29;20125;-78
2021/01/26 07:08:44;;;;;;;8.45;4.00;;;1.00;99.90;;;;;;4956026;29;20055;-79
2021/01/26 07:11:52;;;;;;;9.48;4.20;;;1.00;99.90;;;;;;4956011;29;20142;-79
2021/01/26 07:14:34;;;;;;;6.35;3.50;;;1.00;99.90;;;;;;4955876;29;20235;-78
2021/01/26 07:17:04;;;;;;;6.78;3.58;;;1.10;99.90;;;;;;4955866;29;20450;-78
2021/01/26 07:20:04;;;;;;;8.00;4.03;;;1.10;99.90;;;;;;4955543;29;20053;-78
2021/01/26 07:23:03;;;;;;;7.28;3.55;;;1.10;99.90;;;;;;4955751;29;20062;-79
2021/01/26 07:25:47;;;;;;;8.70;4.07;;;1.00;99.90;;;;;;4955711;29;20075;-79
2021/01/26 07:28:52;;;;;;;8.43;3.60;;;1.10;99.90;;;;;;4955468;29;20138;-78
2021/01/26 07:31:24;;;;;;;8.63;4.03;;;1.10;99.90;;;;;;4954917;29;20134;-78
2021/01/26 07:34:01;;;;;;;7.45;3.80;;;1.20;99.90;;;;;;4955779;29;20055;-78
2021/01/26 07:36:34;;;;;;;6.60;3.53;;;1.20;99.60;;;;;;4955399;29;20130;-78
2021/01/26 07:39:08;;;;;;;9.25;3.83;;;1.20;99.50;;;;;;4955438;29;20197;-78
2021/01/26 07:41:42;;;;;;;6.32;3.40;;;1.20;99.60;;;;;;4955547;29;20468;-78
2021/01/26 07:44:16;;;;;;;8.05;3.38;;;1.20;99.30;;;;;;4955449;29;20511;-78
2021/01/26 07:46:51;;;;;;;6.80;3.58;;;1.20;99.00;;;;;;4955098;28;20054;-78
2021/01/26 07:49:24;;;;;;;6.80;3.42;;;1.20;99.20;;;;;;4955262;29;20055;-78
2021/01/26 07:51:57;;;;;;;6.68;2.97;;;1.20;99.30;;;;;;4955151;29;20130;-79
2021/01/26 07:54:32;;;;;;;7.82;3.25;;;1.30;98.80;;;;;;4955375;29;20146;-78
2021/01/26 07:57:04;;;;;;;8.57;3.40;;;1.30;98.80;;;;;;4955357;29;20517;-78
2021/01/26 07:59:33;;;;;;;5.60;3.40;;;1.30;98.90;;;;;;4955270;29;20544;-78
2021/01/26 08:02:05;;;;;;;7.00;3.20;;;1.30;99.00;;;;;;4955330;29;20047;-78
2021/01/26 08:04:39;;;;;;;5.72;3.13;;;1.20;99.00;;;;;;4955309;29;20138;-78
2021/01/26 08:07:06;;;;;;;7.45;3.30;;;1.40;99.00;;;;;;4954515;29;20166;-78
2021/01/26 08:09:41;;;;;;;7.22;3.60;;;1.40;99.40;;;;;;4954838;29;20130;-78
2021/01/26 08:12:13;;;;;;;7.88;3.05;;;1.30;99.20;;;;;;4955095;29;20153;-78
2021/01/26 08:14:43;;;;;;;6.32;3.00;;;1.30;99.20;;;;;;4955178;29;20055;-78
2021/01/26 08:17:15;;;;;;;7.55;3.25;;;1.30;98.90;;;;;;4954786;29;20138;-78
2021/01/26 08:19:46;;;;;;;6.28;3.03;;;1.40;99.00;;;;;;4954518;29;20056;-78
2021/01/26 08:22:30;;;;;;;6.85;3.08;;;1.50;99.00;;;;;;4954690;29;20194;-77
2021/01/26 08:25:03;;;;;;;6.68;2.88;;;1.40;99.00;;;;;;4954415;29;20058;-78
2021/01/26 08:27:54;;;;;;;7.80;3.50;;;1.50;99.00;;;;;;4954261;29;20133;-80
2021/01/26 08:30:59;;;;;;;6.80;3.38;;;1.40;99.40;;;;;;4954812;29;20082;-79
2021/01/26 08:33:28;;;;;;;7.22;2.97;;;1.40;99.20;;;;;;4955010;29;20130;-79
2021/01/26 08:36:31;;;;;;;6.35;2.90;;;1.50;99.60;;;;;;4954829;29;20090;-79
2021/01/26 08:39:04;;;;;;;6.82;3.20;;;1.40;99.50;;;;;;4944905;29;20501;-78
2021/01/26 08:41:47;;;;;;;6.68;3.00;;;1.50;98.90;;;;;;4954592;29;20457;-78
2021/01/26 08:44:50;;;;;;;11.90;3.70;;;1.30;99.30;;;;;;4964156;29;20107;-79
2021/01/26 08:47:46;;;;;;;8.80;2.92;;;1.30;99.20;;;;;;4933087;29;20130;-79
2021/01/26 08:50:30;;;;;;;10.55;3.42;;;1.40;99.10;;;;;;4965000;29;20448;-79
2021/01/26 08:53:16;;;;;;;6.93;3.13;;;1.40;99.20;;;;;;4964829;29;20111;-79
2021/01/26 08:55:45;;;;;;;5.28;2.92;;;1.60;99.10;;;;;;4964270;29;20074;-79
2021/01/26 08:58:37;;;;;;;6.60;3.05;;;1.30;99.40;;;;;;4963026;28;20425;-79
2021/01/26 09:01:05;;;;;;;9.73;3.17;;;1.50;99.40;;;;;;4954172;29;20061;-79
2021/01/26 09:03:43;;;;;;;6.25;3.40;;;1.50;99.50;;;;;;4953624;29;20138;-79
2021/01/26 09:06:13;;;;;;;7.25;3.22;;;1.50;99.50;;;;;;4953616;29;20082;-79
2021/01/26 09:08:52;;;;;;;6.75;3.38;;;1.40;99.60;;;;;;4953652;29;20509;-79
2021/01/26 09:11:38;;;;;;;9.82;3.75;;;1.50;99.60;;;;;;4953979;29;20058;-79
2021/01/26 09:14:32;;;;;;;6.63;3.40;;;1.40;99.90;;;;;;4953274;29;20409;-79
2021/01/26 09:17:01;;;;;;;;;;;1.50;99.90;;;;;;4952070;29;20047;-79
2021/01/26 09:19:33;;;;;;;7.70;3.38;;;1.50;99.90;;;;;;4953765;29;20021;-79
2021/01/26 09:22:10;;;;;;;8.63;3.85;;;1.60;99.90;;;;;;4953879;29;20469;-79
2021/01/26 09:24:38;;;;;;;8.38;3.67;;;1.70;99.90;;;;;;4953717;29;20130;-79
2021/01/26 09:27:22;;;;;;;6.90;3.25;;;1.60;99.80;;;;;;4953406;29;20138;-79
2021/01/26 09:30:10;;;;;;;8.25;3.67;;;1.60;99.90;;;;;;4953494;29;20574;-78
2021/01/26 09:32:39;;;;;;;8.85;3.97;;;1.50;99.90;;;;;;4953631;29;20556;-79
2021/01/26 09:35:22;;;;;;;9.70;3.90;;;1.60;99.90;;;;;;4953723;28;20057;-79
2021/01/26 09:38:10;;;;;;;9.07;4.30;;;1.50;99.90;;;;;;4953246;29;20087;-79
2021/01/26 09:40:40;;;;;;;7.55;3.90;;;1.60;99.90;;;;;;4953440;29;20055;-78
2021/01/26 09:43:15;;;;;;;11.88;4.20;;;1.60;99.90;;;;;;4953311;29;20402;-78
2021/01/26 09:45:43;;;;;;;;;;;1.60;99.90;;;;;;4953915;29;20047;-78
2021/01/26 09:48:15;;;;;;;8.73;4.25;;;1.60;99.90;;;;;;4953362;29;19922;-79
2021/01/26 09:50:42;;;;;;;9.25;4.20;;;1.60;99.90;;;;;;4953394;29;20141;-79
2021/01/26 09:53:08;;;;;;;9.82;4.20;;;1.70;99.90;;;;;;4952374;29;20138;-79
2021/01/26 09:55:36;;;;;;;8.13;4.05;;;1.80;99.90;;;;;;4953306;29;20061;-78
2021/01/26 09:58:02;;;;;;;12.23;4.53;;;1.70;99.90;;;;;;4952882;29;20146;-79
2021/01/26 10:00:30;;;;;;;8.65;4.22;;;1.80;99.90;;;;;;4952998;29;20552;-79
2021/01/26 10:03:00;;;;;;;9.73;4.40;;;1.90;99.80;;;;;;4953035;29;20051;-79
2021/01/26 10:05:30;;;;;;;8.15;3.72;;;2.00;99.50;;;;;;4953517;29;20114;-79
2021/01/26 10:08:11;;;;;;;7.95;4.13;;;2.00;99.30;;;;;;4952887;29;20110;-79
2021/01/26 10:10:40;;;;;;;11.30;4.40;;;2.10;99.10;;;;;;4955644;28;20078;-78
2021/01/26 10:13:32;;;;;;;10.02;4.07;;;2.00;99.00;;;;;;4957004;29;20051;-79
2021/01/26 10:16:00;;;;;;;8.25;4.22;;;2.10;99.20;;;;;;4954486;29;20047;-79
2021/01/26 10:18:30;;;;;;;7.80;3.80;;;2.30;98.80;;;;;;4956848;29;20137;-79
2021/01/26 10:21:03;;;;;;;7.82;3.75;;;2.30;98.70;;;;;;4956664;29;20142;-79
2021/01/26 10:23:36;;;;;;;9.18;4.65;;;2.30;98.20;;;;;;4957243;29;20051;-79
2021/01/26 10:26:15;;;;;;;10.15;4.47;;;2.30;98.50;;;;;;4957081;29;20055;-79
2021/01/26 10:29:19;;;;;;;9.75;4.25;;;2.20;98.90;;;;;;4956758;29;20130;-79
2021/01/26 10:31:49;;;;;;;11.50;4.28;;;2.20;98.80;;;;;;4956835;29;20059;-79
2021/01/26 10:34:40;;;;;;;9.05;4.22;;;2.20;98.80;;;;;;4956547;29;20465;-79
2021/01/26 10:37:33;;;;;;;10.00;4.53;;;2.20;98.70;;;;;;4956659;29;20093;-79
2021/01/26 10:40:32;;;;;;;8.85;4.15;;;2.20;98.80;;;;;;4956717;29;20059;-79
2021/01/26 10:43:05;;;;;;;9.30;4.05;;;2.20;98.80;;;;;;4944919;29;20406;-79
2021/01/26 10:45:47;;;;;;;10.02;4.43;;;2.30;98.80;;;;;;4937325;29;20450;-79
2021/01/26 10:48:28;;;;;;;8.88;3.95;;;2.20;98.90;;;;;;4936985;29;20131;-79
2021/01/26 10:51:09;;;;;;;9.50;4.28;;;2.30;98.80;;;;;;4937140;29;20134;-79
2021/01/26 10:53:39;;;;;;;10.80;3.88;;;2.40;98.30;;;;;;4936933;29;20051;-79
2021/01/26 10:56:07;;;;;;;8.93;4.25;;;2.40;98.30;;;;;;4937178;29;20138;-79
2021/01/26 10:58:33;;;;;;;9.55;4.45;;;2.50;98.20;;;;;;4936820;29;20505;-79
2021/01/26 11:01:01;;;;;;;8.85;4.07;;;2.50;98.10;;;;;;4936786;29;20062;-79
2021/01/26 11:03:27;;;;;;;8.40;4.10;;;2.50;98.30;;;;;;4936930;29;20664;-79
2021/01/26 11:05:55;;;;;;;8.48;3.80;;;2.60;98.00;;;;;;4937040;29;20051;-79
2021/01/26 11:08:22;;;;;;;9.43;3.83;;;2.70;97.80;;;;;;4936286;29;20131;-79
2021/01/26 11:10:49;;;;;;;9.77;3.92;;;2.70;97.70;;;;;;4936639;29;20569;-79
2021/01/26 11:13:16;;;;;;;8.25;3.58;;;2.80;98.20;;;;;;4936845;29;20084;-79
2021/01/26 11:15:42;;;;;;;7.68;4.00;;;2.50;97.90;;;;;;4936910;29;20047;-79
2021/01/26 11:18:10;;;;;;;8.43;3.80;;;2.60;97.80;;;;;;4936944;29;20139;-78
2021/01/26 11:20:37;;;;;;;7.90;3.17;;;2.50;97.60;;;;;;4936024;29;20504;-79
2021/01/26 11:23:05;;;;;;;9.25;3.80;;;2.50;97.80;;;;;;4935824;29;20142;-78
2021/01/26 11:25:31;;;;;;;6.72;3.53;;;2.70;97.90;;;;;;4936662;29;20055;-79
2021/01/26 11:27:58;;;;;;;8.25;3.40;;;2.60;97.70;;;;;;4936916;29;20087;-79
2021/01/26 11:30:26;;;;;;;8.77;3.47;;;2.50;97.60;;;;;;4936622;29;20059;-79
2021/01/26 11:32:52;;;;;;;7.00;3.22;;;2.60;97.50;;;;;;4936506;29;20135;-79
2021/01/26 11:35:24;;;;;;;7.38;3.63;;;2.70;97.30;;;;;;4936201;29;20139;-79
2021/01/26 11:37:52;;;;;;;5.90;2.97;;;2.80;97.30;;;;;;4941363;29;20489;-78
2021/01/26 11:40:20;;;;;;;6.90;3.45;;;2.90;97.10;;;;;;4954846;29;20460;-79
2021/01/26 11:42:47;;;;;;;7.65;3.10;;;2.70;97.00;;;;;;4955398;29;20138;-79
2021/01/26 11:45:19;;;;;;;6.30;3.10;;;2.80;96.70;;;;;;4954411;29;20576;-79
2021/01/26 11:47:45;;;;;;;8.75;3.20;;;2.80;96.80;;;;;;4953495;29;20130;-79
2021/01/26 11:50:14;;;;;;;9.82;3.20;;;2.80;96.70;;;;;;4954591;29;20094;-79
2021/01/26 11:52:41;;;;;;;5.82;3.05;;;2.80;96.80;;;;;;4954764;29;20061;-79
2021/01/26 11:55:12;;;;;;;8.02;3.00;;;2.80;96.50;;;;;;4954304;29;20083;-79
2021/01/26 11:57:39;;;;;;;7.97;3.08;;;2.90;96.50;;;;;;4954414;29;20138;-79
2021/01/26 12:00:10;;;;;;;7.07;3.35;;;2.90;96.10;;;;;;4947463;29;20055;-82
2021/01/26 12:02:37;;;;;;;5.63;2.47;;;2.90;95.80;;;;;;4935992;29;20488;-81
2021/01/26 12:05:05;;;;;;;6.15;2.33;;;2.90;96.20;;;;;;4935118;29;20083;-81
2021/01/26 12:07:32;;;;;;;7.72;3.00;;;2.90;96.10;;;;;;4935035;29;20059;-80
2021/01/26 12:09:58;;;;;;;6.15;2.75;;;2.90;96.00;;;;;;4935278;29;20139;-79
2021/01/26 12:12:25;;;;;;;8.25;3.53;;;3.00;95.60;;;;;;4935655;29;20139;-79
2021/01/26 12:14:53;;;;;;;8.77;2.83;;;3.10;95.40;;;;;;4936001;29;20119;-80
2021/01/26 12:17:19;;;;;;;6.07;2.75;;;3.00;95.30;;;;;;4935626;29;20075;-80
2021/01/26 12:19:46;;;;;;;8.90;3.45;;;3.10;95.10;;;;;;4934980;29;20047;-80
2021/01/26 12:22:13;;;;;;;9.07;3.35;;;3.30;94.50;;;;;;4935535;29;20083;-81
2021/01/26 12:24:39;;;;;;;10.02;3.30;;;3.30;94.60;;;;;;4952492;29;20122;-80
2021/01/26 12:27:06;;;;;;;7.68;2.58;;;3.60;93.40;;;;;;4954600;29;20089;-80
2021/01/26 12:29:33;;;;;;;6.22;2.40;;;3.70;92.50;;;;;;4954511;29;20052;-80
2021/01/26 12:32:00;;;;;;;8.80;3.75;;;3.70;92.80;;;;;;4954827;29;20055;-79
2021/01/26 12:34:27;;;;;;;7.22;2.40;;;3.70;92.10;;;;;;4955264;28;20141;-81
2021/01/26 12:36:54;;;;;;;10.38;4.10;;;3.60;91.70;;;;;;4957637;29;20093;-80
2021/01/26 12:39:21;;;;;;;6.93;2.40;;;3.60;91.90;;;;;;4956367;29;20374;-78
2021/01/26 12:41:48;;;;;;;6.18;2.40;;;3.70;92.20;;;;;;4942437;29;20119;-79
2021/01/26 12:44:16;;;;;;;7.35;2.78;;;3.70;91.80;;;;;;4942695;29;20134;-81
2021/01/26 12:46:43;;;;;;;6.65;2.17;;;3.70;91.50;;;;;;4940989;29;20111;-81
2021/01/26 12:49:11;;;;;;;5.20;1.98;;;3.70;90.70;;;;;;4941942;29;20083;-79
2021/01/26 12:51:38;;;;;;;7.78;2.15;;;3.70;90.80;;;;;;4941942;29;20113;-79
2021/01/26 12:54:06;;;;;;;5.47;2.13;;;3.70;90.20;;;;;;4959322;29;20098;-80
2021/01/26 12:56:32;;;;;;;5.75;1.73;;;3.60;90.60;;;;;;4959512;29;20062;-81
2021/01/26 12:58:59;;;;;;;4.60;1.70;;;3.60;90.80;;;;;;4955589;29;20190;-80
2021/01/26 13:01:26;;;;;;;4.78;1.85;;;3.70;90.70;;;;;;4936202;29;20436;-79
2021/01/26 13:03:53;;;;;;;4.63;1.65;;;3.70;88.50;;;;;;4936234;29;20458;-81
2021/01/26 13:06:20;;;;;;;5.43;1.80;;;3.50;90.50;;;;;;4935864;29;20054;-81
2021/01/26 13:08:47;;;;;;;5.18;1.60;;;3.60;90.40;;;;;;4942992;29;20055;-79
2021/01/26 13:11:14;;;;;;;5.53;1.73;;;3.70;89.80;;;;;;4953645;29;20138;-81
2021/01/26 13:13:40;;;;;;;4.93;1.60;;;3.70;90.00;;;;;;4951237;29;20449;-81
2021/01/26 13:16:07;;;;;;;4.85;1.73;;;3.50;89.70;;;;;;4952897;29;20138;-82
2021/01/26 13:18:33;;;;;;;4.75;1.88;;;3.60;89.20;;;;;;4941539;29;20090;-80
2021/01/26 13:21:00;;;;;;;6.32;2.55;;;3.60;89.70;;;;;;4935341;29;20482;-81
2021/01/26 13:23:27;;;;;;;4.47;1.77;;;3.50;89.40;;;;;;4936696;29;20162;-81
2021/01/26 13:25:54;;;;;;;5.75;1.77;;;3.50;90.50;;;;;;4939854;29;20106;-81
2021/01/26 13:28:21;;;;;;;5.32;1.90;;;3.80;90.80;;;;;;4946034;29;20048;-81
2021/01/26 13:30:48;;;;;;;5.90;2.05;;;3.80;90.40;;;;;;4942644;29;20075;-81